sensor_id;sensor_type;location;lat;lon;timestamp;P1;durP1;ratioP1;P2;durP2;ratioP2
68653;SDS011;55636;51.108;13.622;2023-09-12T00:00:40;12.18;;;11.02;;
68653;SDS011;55636;51.108;13.622;2023-09-12T00:01:42;13.05;;;11.85;;
68653;SDS011;55636;51.108;13.622;2023-09-12T00:02:45;13.02;;;11.73;;
68653;SDS011;55636;51.108;13.622;2023-09-12T00:03:47;12.40;;;11.30;;
68653;SDS011;55636;51.108;13.622;2023-09-12T00:04:50;12.23;;;11.07;;
68653;SDS011;55636;51.108;13.622;2023-09-12T00:05:54;12.68;;;11.35;;
68653;SDS011;55636;51.108;13.622;2023-09-12T00:07:01;13.65;;;11.80;;
68653;SDS011;55636;51.108;13.622;2023-09-12T00:08:04;12.35;;;11.07;;
68653;SDS011;55636;51.108;13.622;2023-09-12T00:09:06;13.32;;;11.85;;
68653;SDS011;55636;51.108;13.622;2023-09-12T00:10:09;12.35;;;10.98;;
68653;SDS011;55636;51.108;13.622;2023-09-12T00:11:11;12.90;;;11.48;;
68653;SDS011;55636;51.108;13.622;2023-09-12T00:12:14;12.60;;;11.50;;
68653;SDS011;55636;51.108;13.622;2023-09-12T00:13:17;12.73;;;11.50;;
68653;SDS011;55636;51.108;13.622;2023-09-12T00:14:20;13.55;;;12.15;;
68653;SDS011;55636;51.108;13.622;2023-09-12T00:15:22;13.65;;;12.30;;
68653;SDS011;55636;51.108;13.622;2023-09-12T00:16:25;13.50;;;12.07;;
68653;SDS011;55636;51.108;13.622;2023-09-12T00:17:27;13.80;;;12.32;;
68653;SDS011;55636;51.108;13.622;2023-09-12T00:18:30;13.70;;;12.30;;
68653;SDS011;55636;51.108;13.622;2023-09-12T00:19:33;14.23;;;12.65;;
68653;SDS011;55636;51.108;13.622;2023-09-12T00:20:35;13.73;;;12.50;;
68653;SDS011;55636;51.108;13.622;2023-09-12T00:21:37;13.75;;;12.32;;
68653;SDS011;55636;51.108;13.622;2023-09-12T00:22:40;12.88;;;11.57;;
68653;SDS011;55636;51.108;13.622;2023-09-12T00:23:42;13.85;;;12.35;;
68653;SDS011;55636;51.108;13.622;2023-09-12T00:24:44;14.13;;;12.73;;
68653;SDS011;55636;51.108;13.622;2023-09-12T00:25:48;13.80;;;12.38;;
68653;SDS011;55636;51.108;13.622;2023-09-12T00:26:52;13.75;;;12.45;;
68653;SDS011;55636;51.108;13.622;2023-09-12T00:27:54;14.55;;;12.20;;
68653;SDS011;55636;51.108;13.622;2023-09-12T00:28:56;13.15;;;11.85;;
68653;SDS011;55636;51.108;13.622;2023-09-12T00:29:59;12.85;;;11.50;;
68653;SDS011;55636;51.108;13.622;2023-09-12T00:31:01;13.20;;;11.90;;
68653;SDS011;55636;51.108;13.622;2023-09-12T00:32:04;12.80;;;11.50;;
68653;SDS011;55636;51.108;13.622;2023-09-12T00:33:06;13.30;;;11.30;;
68653;SDS011;55636;51.108;13.622;2023-09-12T00:34:09;13.05;;;11.80;;
68653;SDS011;55636;51.108;13.622;2023-09-12T00:35:12;12.50;;;11.32;;
68653;SDS011;55636;51.108;13.622;2023-09-12T00:36:14;12.68;;;11.40;;
68653;SDS011;55636;51.108;13.622;2023-09-12T00:37:17;12.40;;;11.20;;
68653;SDS011;55636;51.108;13.622;2023-09-12T00:38:19;12.07;;;10.88;;
68653;SDS011;55636;51.108;13.622;2023-09-12T00:39:21;12.98;;;11.60;;
68653;SDS011;55636;51.108;13.622;2023-09-12T00:40:24;12.55;;;11.25;;
68653;SDS011;55636;51.108;13.622;2023-09-12T00:41:27;12.00;;;10.90;;
68653;SDS011;55636;51.108;13.622;2023-09-12T00:42:30;11.85;;;10.55;;
68653;SDS011;55636;51.108;13.622;2023-09-12T00:43:32;14.07;;;11.25;;
68653;SDS011;55636;51.108;13.622;2023-09-12T00:44:35;11.90;;;10.70;;
68653;SDS011;55636;51.108;13.622;2023-09-12T00:45:38;11.88;;;10.73;;
68653;SDS011;55636;51.108;13.622;2023-09-12T00:46:40;11.25;;;10.15;;
68653;SDS011;55636;51.108;13.622;2023-09-12T00:47:46;12.88;;;11.07;;
68653;SDS011;55636;51.108;13.622;2023-09-12T00:48:50;12.70;;;11.40;;
68653;SDS011;55636;51.108;13.622;2023-09-12T00:49:55;11.82;;;10.70;;
68653;SDS011;55636;51.108;13.622;2023-09-12T00:50:58;11.40;;;10.23;;
68653;SDS011;55636;51.108;13.622;2023-09-12T00:52:02;11.80;;;10.60;;
68653;SDS011;55636;51.108;13.622;2023-09-12T00:53:05;11.90;;;10.60;;
68653;SDS011;55636;51.108;13.622;2023-09-12T00:54:08;11.77;;;10.65;;
68653;SDS011;55636;51.108;13.622;2023-09-12T00:55:11;11.10;;;10.10;;
68653;SDS011;55636;51.108;13.622;2023-09-12T00:56:14;11.77;;;10.43;;
68653;SDS011;55636;51.108;13.622;2023-09-12T00:57:17;11.65;;;10.48;;
68653;SDS011;55636;51.108;13.622;2023-09-12T00:58:19;11.18;;;10.02;;
68653;SDS011;55636;51.108;13.622;2023-09-12T00:59:22;11.88;;;9.90;;
68653;SDS011;55636;51.108;13.622;2023-09-12T01:00:25;11.48;;;10.38;;
68653;SDS011;55636;51.108;13.622;2023-09-12T01:01:27;12.35;;;10.85;;
68653;SDS011;55636;51.108;13.622;2023-09-12T01:02:30;11.50;;;10.40;;
68653;SDS011;55636;51.108;13.622;2023-09-12T01:03:32;11.27;;;10.18;;
68653;SDS011;55636;51.108;13.622;2023-09-12T01:04:37;11.70;;;10.52;;
68653;SDS011;55636;51.108;13.622;2023-09-12T01:05:41;12.95;;;11.00;;
68653;SDS011;55636;51.108;13.622;2023-09-12T01:06:44;11.55;;;10.43;;
68653;SDS011;55636;51.108;13.622;2023-09-12T01:07:47;12.10;;;10.90;;
68653;SDS011;55636;51.108;13.622;2023-09-12T01:08:50;10.77;;;9.68;;
68653;SDS011;55636;51.108;13.622;2023-09-12T01:09:53;12.02;;;10.82;;
68653;SDS011;55636;51.108;13.622;2023-09-12T01:10:55;13.13;;;11.60;;
68653;SDS011;55636;51.108;13.622;2023-09-12T01:12:00;12.50;;;11.40;;
68653;SDS011;55636;51.108;13.622;2023-09-12T01:13:06;12.15;;;10.52;;
68653;SDS011;55636;51.108;13.622;2023-09-12T01:14:08;11.35;;;10.25;;
68653;SDS011;55636;51.108;13.622;2023-09-12T01:15:11;11.73;;;10.52;;
68653;SDS011;55636;51.108;13.622;2023-09-12T01:16:15;12.05;;;10.65;;
68653;SDS011;55636;51.108;13.622;2023-09-12T01:17:18;12.52;;;11.23;;
68653;SDS011;55636;51.108;13.622;2023-09-12T01:18:20;12.18;;;11.02;;
68653;SDS011;55636;51.108;13.622;2023-09-12T01:19:23;12.38;;;11.27;;
68653;SDS011;55636;51.108;13.622;2023-09-12T01:20:30;13.93;;;11.27;;
68653;SDS011;55636;51.108;13.622;2023-09-12T01:28:12;11.57;;;10.48;;
68653;SDS011;55636;51.108;13.622;2023-09-12T01:29:18;12.02;;;10.93;;
68653;SDS011;55636;51.108;13.622;2023-09-12T01:30:23;11.30;;;10.18;;
68653;SDS011;55636;51.108;13.622;2023-09-12T01:31:27;11.57;;;10.38;;
68653;SDS011;55636;51.108;13.622;2023-09-12T01:32:32;12.20;;;10.90;;
68653;SDS011;55636;51.108;13.622;2023-09-12T01:33:35;11.45;;;10.35;;
68653;SDS011;55636;51.108;13.622;2023-09-12T01:34:38;12.13;;;10.85;;
68653;SDS011;55636;51.108;13.622;2023-09-12T01:35:40;13.00;;;11.45;;
68653;SDS011;55636;51.108;13.622;2023-09-12T01:36:43;12.30;;;11.10;;
68653;SDS011;55636;51.108;13.622;2023-09-12T01:37:45;13.18;;;11.05;;
68653;SDS011;55636;51.108;13.622;2023-09-12T01:38:47;12.30;;;11.10;;
68653;SDS011;55636;51.108;13.622;2023-09-12T01:39:50;12.02;;;10.85;;
68653;SDS011;55636;51.108;13.622;2023-09-12T01:40:53;12.27;;;11.07;;
68653;SDS011;55636;51.108;13.622;2023-09-12T01:41:57;12.90;;;11.30;;
68653;SDS011;55636;51.108;13.622;2023-09-12T01:43:01;12.27;;;10.95;;
68653;SDS011;55636;51.108;13.622;2023-09-12T01:44:08;12.38;;;11.27;;
68653;SDS011;55636;51.108;13.622;2023-09-12T01:45:16;11.77;;;10.65;;
68653;SDS011;55636;51.108;13.622;2023-09-12T01:46:23;12.13;;;11.00;;
68653;SDS011;55636;51.108;13.622;2023-09-12T01:47:28;12.45;;;11.25;;
68653;SDS011;55636;51.108;13.622;2023-09-12T01:48:32;13.13;;;11.82;;
68653;SDS011;55636;51.108;13.622;2023-09-12T01:49:39;12.88;;;11.68;;
68653;SDS011;55636;51.108;13.622;2023-09-12T01:50:44;12.13;;;11.02;;
68653;SDS011;55636;51.108;13.622;2023-09-12T01:51:46;13.10;;;11.80;;
68653;SDS011;55636;51.108;13.622;2023-09-12T01:52:49;12.75;;;11.48;;
68653;SDS011;55636;51.108;13.622;2023-09-12T01:53:52;11.98;;;10.88;;
68653;SDS011;55636;51.108;13.622;2023-09-12T01:54:55;13.75;;;11.48;;
68653;SDS011;55636;51.108;13.622;2023-09-12T01:55:58;12.35;;;11.15;;
68653;SDS011;55636;51.108;13.622;2023-09-12T01:57:02;12.52;;;11.13;;
68653;SDS011;55636;51.108;13.622;2023-09-12T01:58:05;11.80;;;10.73;;
68653;SDS011;55636;51.108;13.622;2023-09-12T01:59:07;12.63;;;11.32;;
68653;SDS011;55636;51.108;13.622;2023-09-12T02:00:10;12.55;;;11.02;;
68653;SDS011;55636;51.108;13.622;2023-09-12T02:01:14;12.60;;;11.48;;
68653;SDS011;55636;51.108;13.622;2023-09-12T02:02:17;12.35;;;11.05;;
68653;SDS011;55636;51.108;13.622;2023-09-12T02:03:20;12.30;;;11.10;;
68653;SDS011;55636;51.108;13.622;2023-09-12T02:04:23;12.25;;;11.02;;
68653;SDS011;55636;51.108;13.622;2023-09-12T02:05:25;12.52;;;11.43;;
68653;SDS011;55636;51.108;13.622;2023-09-12T02:06:28;11.80;;;10.77;;
68653;SDS011;55636;51.108;13.622;2023-09-12T02:07:32;12.20;;;11.00;;
68653;SDS011;55636;51.108;13.622;2023-09-12T02:08:36;13.10;;;11.50;;
68653;SDS011;55636;51.108;13.622;2023-09-12T02:09:39;12.88;;;11.68;;
68653;SDS011;55636;51.108;13.622;2023-09-12T02:10:41;12.40;;;11.25;;
68653;SDS011;55636;51.108;13.622;2023-09-12T02:11:43;12.63;;;11.30;;
68653;SDS011;55636;51.108;13.622;2023-09-12T02:12:46;12.02;;;10.82;;
68653;SDS011;55636;51.108;13.622;2023-09-12T02:13:49;12.48;;;11.27;;
68653;SDS011;55636;51.108;13.622;2023-09-12T02:14:51;12.30;;;11.07;;
68653;SDS011;55636;51.108;13.622;2023-09-12T02:16:00;11.77;;;10.68;;
68653;SDS011;55636;51.108;13.622;2023-09-12T02:17:03;11.82;;;10.63;;
68653;SDS011;55636;51.108;13.622;2023-09-12T02:18:06;12.20;;;11.00;;
68653;SDS011;55636;51.108;13.622;2023-09-12T02:19:09;11.50;;;10.40;;
68653;SDS011;55636;51.108;13.622;2023-09-12T02:20:11;12.27;;;11.07;;
68653;SDS011;55636;51.108;13.622;2023-09-12T02:21:13;12.02;;;10.93;;
68653;SDS011;55636;51.108;13.622;2023-09-12T02:22:18;13.02;;;10.93;;
68653;SDS011;55636;51.108;13.622;2023-09-12T02:23:20;12.45;;;11.30;;
68653;SDS011;55636;51.108;13.622;2023-09-12T02:24:23;12.48;;;11.27;;
68653;SDS011;55636;51.108;13.622;2023-09-12T02:25:25;11.93;;;10.82;;
68653;SDS011;55636;51.108;13.622;2023-09-12T02:26:28;12.80;;;11.60;;
68653;SDS011;55636;51.108;13.622;2023-09-12T02:27:30;13.43;;;12.07;;
68653;SDS011;55636;51.108;13.622;2023-09-12T02:28:33;13.65;;;12.20;;
68653;SDS011;55636;51.108;13.622;2023-09-12T02:29:36;13.35;;;12.05;;
68653;SDS011;55636;51.108;13.622;2023-09-12T02:30:41;13.65;;;12.25;;
68653;SDS011;55636;51.108;13.622;2023-09-12T02:31:43;13.15;;;11.90;;
68653;SDS011;55636;51.108;13.622;2023-09-12T02:32:46;13.18;;;11.82;;
68653;SDS011;55636;51.108;13.622;2023-09-12T02:33:48;13.20;;;11.90;;
68653;SDS011;55636;51.108;13.622;2023-09-12T02:34:51;13.30;;;12.07;;
68653;SDS011;55636;51.108;13.622;2023-09-12T02:35:55;14.18;;;12.77;;
68653;SDS011;55636;51.108;13.622;2023-09-12T02:36:57;15.43;;;13.55;;
68653;SDS011;55636;51.108;13.622;2023-09-12T02:38:00;15.43;;;13.88;;
68653;SDS011;55636;51.108;13.622;2023-09-12T02:39:02;13.93;;;12.63;;
68653;SDS011;55636;51.108;13.622;2023-09-12T02:40:06;13.45;;;12.25;;
68653;SDS011;55636;51.108;13.622;2023-09-12T02:41:09;14.13;;;12.73;;
68653;SDS011;55636;51.108;13.622;2023-09-12T02:42:11;14.38;;;12.90;;
68653;SDS011;55636;51.108;13.622;2023-09-12T02:43:14;14.48;;;12.75;;
68653;SDS011;55636;51.108;13.622;2023-09-12T02:44:16;14.38;;;13.00;;
68653;SDS011;55636;51.108;13.622;2023-09-12T02:45:18;15.27;;;13.27;;
68653;SDS011;55636;51.108;13.622;2023-09-12T02:46:21;14.82;;;13.32;;
68653;SDS011;55636;51.108;13.622;2023-09-12T02:47:24;14.95;;;13.55;;
68653;SDS011;55636;51.108;13.622;2023-09-12T02:48:26;16.08;;;14.52;;
68653;SDS011;55636;51.108;13.622;2023-09-12T02:49:28;15.48;;;13.98;;
68653;SDS011;55636;51.108;13.622;2023-09-12T02:50:31;15.73;;;14.23;;
68653;SDS011;55636;51.108;13.622;2023-09-12T02:51:38;15.23;;;13.73;;
68653;SDS011;55636;51.108;13.622;2023-09-12T02:52:41;15.30;;;13.80;;
68653;SDS011;55636;51.108;13.622;2023-09-12T02:53:44;14.80;;;13.40;;
68653;SDS011;55636;51.108;13.622;2023-09-12T02:54:46;14.60;;;13.18;;
68653;SDS011;55636;51.108;13.622;2023-09-12T02:55:49;13.85;;;12.55;;
68653;SDS011;55636;51.108;13.622;2023-09-12T02:56:53;14.40;;;13.10;;
68653;SDS011;55636;51.108;13.622;2023-09-12T02:57:56;15.48;;;13.02;;
68653;SDS011;55636;51.108;13.622;2023-09-12T02:58:58;15.77;;;14.20;;
68653;SDS011;55636;51.108;13.622;2023-09-12T03:00:01;14.85;;;13.45;;
68653;SDS011;55636;51.108;13.622;2023-09-12T03:01:03;15.95;;;14.38;;
68653;SDS011;55636;51.108;13.622;2023-09-12T03:02:08;15.27;;;13.75;;
68653;SDS011;55636;51.108;13.622;2023-09-12T03:03:10;15.95;;;14.45;;
68653;SDS011;55636;51.108;13.622;2023-09-12T03:04:13;16.60;;;14.90;;
68653;SDS011;55636;51.108;13.622;2023-09-12T03:05:16;15.45;;;13.95;;
68653;SDS011;55636;51.108;13.622;2023-09-12T03:06:18;15.18;;;13.68;;
68653;SDS011;55636;51.108;13.622;2023-09-12T03:07:21;15.68;;;14.20;;
68653;SDS011;55636;51.108;13.622;2023-09-12T03:08:24;15.60;;;14.10;;
68653;SDS011;55636;51.108;13.622;2023-09-12T03:09:26;15.27;;;13.82;;
68653;SDS011;55636;51.108;13.622;2023-09-12T03:10:29;15.20;;;13.75;;
68653;SDS011;55636;51.108;13.622;2023-09-12T03:11:31;14.45;;;13.15;;
68653;SDS011;55636;51.108;13.622;2023-09-12T03:12:37;15.15;;;13.70;;
68653;SDS011;55636;51.108;13.622;2023-09-12T03:13:40;15.02;;;13.52;;
68653;SDS011;55636;51.108;13.622;2023-09-12T03:14:43;15.02;;;13.63;;
68653;SDS011;55636;51.108;13.622;2023-09-12T03:15:45;15.32;;;13.82;;
68653;SDS011;55636;51.108;13.622;2023-09-12T03:16:48;15.18;;;13.75;;
68653;SDS011;55636;51.108;13.622;2023-09-12T03:17:50;15.07;;;13.57;;
68653;SDS011;55636;51.108;13.622;2023-09-12T03:18:53;15.25;;;13.73;;
68653;SDS011;55636;51.108;13.622;2023-09-12T03:19:55;15.85;;;14.35;;
68653;SDS011;55636;51.108;13.622;2023-09-12T03:20:58;15.63;;;14.15;;
68653;SDS011;55636;51.108;13.622;2023-09-12T03:22:03;15.50;;;14.00;;
68653;SDS011;55636;51.108;13.622;2023-09-12T03:23:05;15.35;;;13.82;;
68653;SDS011;55636;51.108;13.622;2023-09-12T03:24:08;15.45;;;13.98;;
68653;SDS011;55636;51.108;13.622;2023-09-12T03:25:11;16.08;;;14.57;;
68653;SDS011;55636;51.108;13.622;2023-09-12T03:26:13;15.20;;;13.70;;
68653;SDS011;55636;51.108;13.622;2023-09-12T03:27:16;14.82;;;13.43;;
68653;SDS011;55636;51.108;13.622;2023-09-12T03:28:18;15.73;;;14.23;;
68653;SDS011;55636;51.108;13.622;2023-09-12T03:29:21;16.17;;;14.48;;
68653;SDS011;55636;51.108;13.622;2023-09-12T03:30:25;15.10;;;13.70;;
68653;SDS011;55636;51.108;13.622;2023-09-12T03:31:27;14.73;;;13.38;;
68653;SDS011;55636;51.108;13.622;2023-09-12T03:32:31;15.85;;;14.35;;
68653;SDS011;55636;51.108;13.622;2023-09-12T03:33:33;15.60;;;14.10;;
68653;SDS011;55636;51.108;13.622;2023-09-12T03:34:36;16.70;;;15.00;;
68653;SDS011;55636;51.108;13.622;2023-09-12T03:35:38;15.73;;;14.25;;
68653;SDS011;55636;51.108;13.622;2023-09-12T03:36:41;16.58;;;14.98;;
68653;SDS011;55636;51.108;13.622;2023-09-12T03:37:43;17.20;;;15.52;;
68653;SDS011;55636;51.108;13.622;2023-09-12T03:38:46;16.45;;;14.82;;
68653;SDS011;55636;51.108;13.622;2023-09-12T03:39:48;16.42;;;14.90;;
68653;SDS011;55636;51.108;13.622;2023-09-12T03:40:50;17.63;;;15.82;;
68653;SDS011;55636;51.108;13.622;2023-09-12T03:41:53;17.23;;;15.52;;
68653;SDS011;55636;51.108;13.622;2023-09-12T03:42:56;16.48;;;14.98;;
68653;SDS011;55636;51.108;13.622;2023-09-12T03:43:59;17.40;;;15.80;;
68653;SDS011;55636;51.108;13.622;2023-09-12T03:45:02;16.80;;;15.23;;
68653;SDS011;55636;51.108;13.622;2023-09-12T03:46:05;16.25;;;14.75;;
68653;SDS011;55636;51.108;13.622;2023-09-12T03:47:08;16.92;;;15.10;;
68653;SDS011;55636;51.108;13.622;2023-09-12T03:48:11;17.23;;;15.52;;
68653;SDS011;55636;51.108;13.622;2023-09-12T03:49:14;17.23;;;15.43;;
68653;SDS011;55636;51.108;13.622;2023-09-12T03:50:16;17.40;;;15.75;;
68653;SDS011;55636;51.108;13.622;2023-09-12T03:51:18;16.63;;;14.90;;
68653;SDS011;55636;51.108;13.622;2023-09-12T03:52:21;16.38;;;14.75;;
68653;SDS011;55636;51.108;13.622;2023-09-12T03:53:23;17.48;;;15.77;;
68653;SDS011;55636;51.108;13.622;2023-09-12T03:54:26;16.85;;;15.18;;
68653;SDS011;55636;51.108;13.622;2023-09-12T03:55:28;16.60;;;14.98;;
68653;SDS011;55636;51.108;13.622;2023-09-12T03:56:31;17.02;;;15.43;;
68653;SDS011;55636;51.108;13.622;2023-09-12T03:57:33;17.23;;;15.52;;
68653;SDS011;55636;51.108;13.622;2023-09-12T03:58:36;15.50;;;14.10;;
68653;SDS011;55636;51.108;13.622;2023-09-12T03:59:38;16.92;;;15.32;;
68653;SDS011;55636;51.108;13.622;2023-09-12T04:00:41;16.75;;;15.05;;
68653;SDS011;55636;51.108;13.622;2023-09-12T04:01:43;16.83;;;15.23;;
68653;SDS011;55636;51.108;13.622;2023-09-12T04:02:46;15.63;;;14.23;;
68653;SDS011;55636;51.108;13.622;2023-09-12T04:03:49;16.95;;;15.20;;
68653;SDS011;55636;51.108;13.622;2023-09-12T04:04:52;17.70;;;16.10;;
68653;SDS011;55636;51.108;13.622;2023-09-12T04:05:54;16.70;;;15.10;;
68653;SDS011;55636;51.108;13.622;2023-09-12T04:06:57;16.80;;;15.10;;
68653;SDS011;55636;51.108;13.622;2023-09-12T04:07:59;17.08;;;15.48;;
68653;SDS011;55636;51.108;13.622;2023-09-12T04:09:02;15.95;;;14.48;;
68653;SDS011;55636;51.108;13.622;2023-09-12T04:10:05;17.42;;;15.82;;
68653;SDS011;55636;51.108;13.622;2023-09-12T04:11:08;17.25;;;15.55;;
68653;SDS011;55636;51.108;13.622;2023-09-12T04:12:10;17.00;;;15.40;;
68653;SDS011;55636;51.108;13.622;2023-09-12T04:13:13;17.00;;;15.40;;
68653;SDS011;55636;51.108;13.622;2023-09-12T04:14:15;17.40;;;15.70;;
68653;SDS011;55636;51.108;13.622;2023-09-12T04:15:17;17.15;;;15.52;;
68653;SDS011;55636;51.108;13.622;2023-09-12T04:16:20;17.85;;;16.05;;
68653;SDS011;55636;51.108;13.622;2023-09-12T04:17:23;17.23;;;15.60;;
68653;SDS011;55636;51.108;13.622;2023-09-12T04:18:25;17.45;;;15.75;;
68653;SDS011;55636;51.108;13.622;2023-09-12T04:19:29;16.88;;;15.38;;
68653;SDS011;55636;51.108;13.622;2023-09-12T04:20:32;17.15;;;15.55;;
68653;SDS011;55636;51.108;13.622;2023-09-12T04:21:35;16.85;;;15.25;;
68653;SDS011;55636;51.108;13.622;2023-09-12T04:22:37;16.92;;;15.23;;
68653;SDS011;55636;51.108;13.622;2023-09-12T04:23:40;16.90;;;15.30;;
68653;SDS011;55636;51.108;13.622;2023-09-12T04:24:45;17.45;;;15.85;;
68653;SDS011;55636;51.108;13.622;2023-09-12T04:25:48;17.05;;;15.25;;
68653;SDS011;55636;51.108;13.622;2023-09-12T04:26:50;15.65;;;14.18;;
68653;SDS011;55636;51.108;13.622;2023-09-12T04:27:52;17.52;;;15.80;;
68653;SDS011;55636;51.108;13.622;2023-09-12T04:28:55;17.17;;;15.50;;
68653;SDS011;55636;51.108;13.622;2023-09-12T04:29:57;17.05;;;15.45;;
68653;SDS011;55636;51.108;13.622;2023-09-12T04:31:03;16.92;;;15.32;;
68653;SDS011;55636;51.108;13.622;2023-09-12T04:32:06;17.13;;;15.40;;
68653;SDS011;55636;51.108;13.622;2023-09-12T04:33:08;17.70;;;16.00;;
68653;SDS011;55636;51.108;13.622;2023-09-12T04:34:11;17.35;;;15.75;;
68653;SDS011;55636;51.108;13.622;2023-09-12T04:35:13;17.48;;;15.80;;
68653;SDS011;55636;51.108;13.622;2023-09-12T04:36:16;17.67;;;15.98;;
68653;SDS011;55636;51.108;13.622;2023-09-12T04:37:18;17.95;;;16.23;;
68653;SDS011;55636;51.108;13.622;2023-09-12T04:38:20;18.75;;;16.85;;
68653;SDS011;55636;51.108;13.622;2023-09-12T04:39:26;17.20;;;15.60;;
68653;SDS011;55636;51.108;13.622;2023-09-12T04:40:29;17.70;;;15.90;;
68653;SDS011;55636;51.108;13.622;2023-09-12T04:41:32;17.35;;;15.63;;
68653;SDS011;55636;51.108;13.622;2023-09-12T04:42:34;17.83;;;16.13;;
68653;SDS011;55636;51.108;13.622;2023-09-12T04:43:36;17.27;;;15.60;;
68653;SDS011;55636;51.108;13.622;2023-09-12T04:44:39;17.25;;;15.65;;
68653;SDS011;55636;51.108;13.622;2023-09-12T04:45:42;17.15;;;15.55;;
68653;SDS011;55636;51.108;13.622;2023-09-12T04:46:45;17.27;;;15.63;;
68653;SDS011;55636;51.108;13.622;2023-09-12T04:47:48;17.35;;;15.75;;
68653;SDS011;55636;51.108;13.622;2023-09-12T04:48:51;17.63;;;15.98;;
68653;SDS011;55636;51.108;13.622;2023-09-12T04:49:53;17.77;;;16.00;;
68653;SDS011;55636;51.108;13.622;2023-09-12T04:50:55;17.27;;;15.68;;
68653;SDS011;55636;51.108;13.622;2023-09-12T04:51:58;17.63;;;15.82;;
68653;SDS011;55636;51.108;13.622;2023-09-12T04:53:02;17.40;;;15.60;;
68653;SDS011;55636;51.108;13.622;2023-09-12T04:54:05;17.05;;;15.45;;
68653;SDS011;55636;51.108;13.622;2023-09-12T04:55:08;16.83;;;15.23;;
68653;SDS011;55636;51.108;13.622;2023-09-12T04:56:10;17.30;;;15.60;;
68653;SDS011;55636;51.108;13.622;2023-09-12T04:57:13;17.05;;;15.52;;
68653;SDS011;55636;51.108;13.622;2023-09-12T04:58:15;16.17;;;14.68;;
68653;SDS011;55636;51.108;13.622;2023-09-12T04:59:18;17.08;;;15.32;;
68653;SDS011;55636;51.108;13.622;2023-09-12T05:00:20;16.90;;;15.18;;
68653;SDS011;55636;51.108;13.622;2023-09-12T05:01:23;17.95;;;15.85;;
68653;SDS011;55636;51.108;13.622;2023-09-12T05:02:27;16.77;;;15.27;;
68653;SDS011;55636;51.108;13.622;2023-09-12T05:03:30;16.15;;;14.55;;
68653;SDS011;55636;51.108;13.622;2023-09-12T05:04:33;16.95;;;15.40;;
68653;SDS011;55636;51.108;13.622;2023-09-12T05:05:36;16.33;;;14.82;;
68653;SDS011;55636;51.108;13.622;2023-09-12T05:06:39;16.65;;;14.95;;
68653;SDS011;55636;51.108;13.622;2023-09-12T05:07:42;16.55;;;15.00;;
68653;SDS011;55636;51.108;13.622;2023-09-12T05:08:45;17.58;;;15.77;;
68653;SDS011;55636;51.108;13.622;2023-09-12T05:09:48;16.98;;;15.32;;
68653;SDS011;55636;51.108;13.622;2023-09-12T05:10:50;16.38;;;14.80;;
68653;SDS011;55636;51.108;13.622;2023-09-12T05:11:53;16.60;;;15.00;;
68653;SDS011;55636;51.108;13.622;2023-09-12T05:12:55;16.65;;;15.05;;
68653;SDS011;55636;51.108;13.622;2023-09-12T05:13:58;17.17;;;15.50;;
68653;SDS011;55636;51.108;13.622;2023-09-12T05:15:02;16.20;;;14.75;;
68653;SDS011;55636;51.108;13.622;2023-09-12T05:16:05;15.88;;;14.48;;
68653;SDS011;55636;51.108;13.622;2023-09-12T05:17:07;16.25;;;14.75;;
68653;SDS011;55636;51.108;13.622;2023-09-12T05:18:10;16.50;;;14.90;;
68653;SDS011;55636;51.108;13.622;2023-09-12T05:19:13;15.98;;;14.50;;
68653;SDS011;55636;51.108;13.622;2023-09-12T05:20:15;15.30;;;13.90;;
68653;SDS011;55636;51.108;13.622;2023-09-12T05:21:17;16.65;;;15.15;;
68653;SDS011;55636;51.108;13.622;2023-09-12T05:22:20;16.20;;;14.55;;
68653;SDS011;55636;51.108;13.622;2023-09-12T05:23:22;16.67;;;15.07;;
68653;SDS011;55636;51.108;13.622;2023-09-12T05:24:25;16.55;;;14.95;;
68653;SDS011;55636;51.108;13.622;2023-09-12T05:25:27;16.00;;;14.50;;
68653;SDS011;55636;51.108;13.622;2023-09-12T05:26:30;15.80;;;14.32;;
68653;SDS011;55636;51.108;13.622;2023-09-12T05:27:33;16.23;;;14.77;;
68653;SDS011;55636;51.108;13.622;2023-09-12T05:28:36;16.23;;;14.55;;
68653;SDS011;55636;51.108;13.622;2023-09-12T05:29:38;16.70;;;15.02;;
68653;SDS011;55636;51.108;13.622;2023-09-12T05:30:41;17.42;;;15.73;;
68653;SDS011;55636;51.108;13.622;2023-09-12T05:31:45;15.30;;;13.80;;
68653;SDS011;55636;51.108;13.622;2023-09-12T05:32:47;15.65;;;14.23;;
68653;SDS011;55636;51.108;13.622;2023-09-12T05:33:50;15.77;;;14.23;;
68653;SDS011;55636;51.108;13.622;2023-09-12T05:34:52;16.52;;;14.82;;
68653;SDS011;55636;51.108;13.622;2023-09-12T05:36:11;15.73;;;14.25;;
68653;SDS011;55636;51.108;13.622;2023-09-12T05:37:14;16.48;;;14.98;;
68653;SDS011;55636;51.108;13.622;2023-09-12T05:38:16;15.85;;;14.30;;
68653;SDS011;55636;51.108;13.622;2023-09-12T05:39:19;15.48;;;14.07;;
68653;SDS011;55636;51.108;13.622;2023-09-12T05:40:21;16.05;;;14.55;;
68653;SDS011;55636;51.108;13.622;2023-09-12T05:41:24;15.82;;;14.27;;
68653;SDS011;55636;51.108;13.622;2023-09-12T05:42:26;16.67;;;15.07;;
68653;SDS011;55636;51.108;13.622;2023-09-12T05:43:29;16.60;;;15.10;;
68653;SDS011;55636;51.108;13.622;2023-09-12T05:44:31;16.58;;;14.88;;
68653;SDS011;55636;51.108;13.622;2023-09-12T05:45:34;15.77;;;14.25;;
68653;SDS011;55636;51.108;13.622;2023-09-12T05:46:37;15.85;;;14.45;;
68653;SDS011;55636;51.108;13.622;2023-09-12T05:47:39;16.50;;;14.55;;
68653;SDS011;55636;51.108;13.622;2023-09-12T05:48:42;16.10;;;14.60;;
68653;SDS011;55636;51.108;13.622;2023-09-12T05:49:45;16.25;;;14.65;;
68653;SDS011;55636;51.108;13.622;2023-09-12T05:50:48;15.80;;;14.32;;
68653;SDS011;55636;51.108;13.622;2023-09-12T05:51:50;16.27;;;14.68;;
68653;SDS011;55636;51.108;13.622;2023-09-12T05:52:53;15.75;;;14.25;;
68653;SDS011;55636;51.108;13.622;2023-09-12T05:53:55;16.30;;;14.73;;
68653;SDS011;55636;51.108;13.622;2023-09-12T05:54:58;15.98;;;14.45;;
68653;SDS011;55636;51.108;13.622;2023-09-12T05:56:01;15.40;;;13.90;;
68653;SDS011;55636;51.108;13.622;2023-09-12T05:57:04;15.93;;;14.30;;
68653;SDS011;55636;51.108;13.622;2023-09-12T05:58:08;15.90;;;14.48;;
68653;SDS011;55636;51.108;13.622;2023-09-12T05:59:10;15.77;;;14.27;;
68653;SDS011;55636;51.108;13.622;2023-09-12T06:00:13;15.68;;;14.15;;
68653;SDS011;55636;51.108;13.622;2023-09-12T06:01:18;15.73;;;14.15;;
68653;SDS011;55636;51.108;13.622;2023-09-12T06:02:20;15.45;;;14.00;;
68653;SDS011;55636;51.108;13.622;2023-09-12T06:03:23;15.73;;;14.23;;
68653;SDS011;55636;51.108;13.622;2023-09-12T06:04:26;15.23;;;13.85;;
68653;SDS011;55636;51.108;13.622;2023-09-12T06:05:29;15.63;;;14.15;;
68653;SDS011;55636;51.108;13.622;2023-09-12T06:06:31;15.90;;;14.30;;
68653;SDS011;55636;51.108;13.622;2023-09-12T06:07:37;14.75;;;13.27;;
68653;SDS011;55636;51.108;13.622;2023-09-12T06:08:43;15.20;;;13.60;;
68653;SDS011;55636;51.108;13.622;2023-09-12T06:09:45;14.68;;;13.18;;